Time;durP1;ratioP1;P1;durP2;ratioP2;P2;SDS_P1;SDS_P2;PMS_P1;PMS_P2;Temp;Humidity;BMP_temperature;BMP_pressure;BME280_temperature;BME280_humidity;BME280_pressure;Samples;Min_cycle;Max_cycle;Signal;HPM_P1;HPM_P2
2022/07/04 00:01:41;;;;;;;0.00;0.00;;;16.30;99.90;;;;;;4947437;29;20549;-80
2022/07/04 00:04:09;;;;;;;0.00;0.00;;;16.30;99.90;;;;;;4947101;29;20695;-80
2022/07/04 00:06:37;;;;;;;0.00;0.00;;;16.30;99.90;;;;;;4947173;28;20527;-80
2022/07/04 00:09:05;;;;;;;0.00;0.00;;;16.20;99.90;;;;;;4948822;29;20800;-79
2022/07/04 00:11:33;;;;;;;0.00;0.00;;;16.20;99.90;;;;;;4946391;29;20680;-80
2022/07/04 00:14:01;;;;;;;0.00;0.00;;;16.30;99.90;;;;;;4945946;29;20453;-80
2022/07/04 00:16:30;;;;;;;0.00;0.00;;;16.30;99.90;;;;;;4946096;28;20477;-81
2022/07/04 00:18:58;;;;;;;0.00;0.00;;;16.30;99.90;;;;;;4947031;29;21082;-79
2022/07/04 00:21:26;;;;;;;0.00;0.00;;;16.30;99.90;;;;;;4950735;29;20462;-80
2022/07/04 00:23:54;;;;;;;0.00;0.00;;;16.30;99.90;;;;;;5011589;28;20462;-79
2022/07/04 00:26:22;;;;;;;0.00;0.00;;;16.30;99.90;;;;;;5018472;28;20505;-79
2022/07/04 00:28:50;;;;;;;0.00;0.00;;;16.40;99.90;;;;;;5019616;28;20479;-78
2022/07/04 00:31:18;;;;;;;0.00;0.00;;;16.60;99.90;;;;;;5018271;28;20723;-80
2022/07/04 00:33:47;;;;;;;0.00;0.00;;;16.70;99.90;;;;;;5020834;28;20502;-79
2022/07/04 00:36:15;;;;;;;0.00;0.00;;;16.80;99.90;;;;;;5026346;28;20481;-79
2022/07/04 00:38:43;;;;;;;0.00;0.00;;;16.80;99.90;;;;;;5028526;28;20864;-79
2022/07/04 00:41:11;;;;;;;0.00;0.00;;;16.70;99.90;;;;;;5025179;28;20448;-79
2022/07/04 00:43:39;;;;;;;0.00;0.00;;;16.60;99.90;;;;;;5023865;28;20465;-79
2022/07/04 00:46:27;;;;;;;0.00;0.00;;;16.60;99.90;;;;;;5016524;28;20519;-79
2022/07/04 00:48:57;;;;;;;0.00;0.00;;;16.50;99.90;;;;;;5006512;28;20570;-81
2022/07/04 00:51:26;;;;;;;0.00;0.00;;;16.40;99.90;;;;;;5006526;28;20450;-81
2022/07/04 00:53:55;;;;;;;0.00;0.00;;;16.30;99.90;;;;;;5008662;28;20986;-79
2022/07/04 00:56:24;;;;;;;0.00;0.00;;;16.30;99.90;;;;;;5007298;28;20565;-80
2022/07/04 00:58:53;;;;;;;0.00;0.00;;;16.30;99.90;;;;;;5008672;28;20713;-80
2022/07/04 01:01:22;;;;;;;0.00;0.00;;;16.30;99.90;;;;;;5009382;28;20478;-80
2022/07/04 01:03:50;;;;;;;0.00;0.00;;;16.30;99.90;;;;;;5012553;28;20445;-80
2022/07/04 01:06:20;;;;;;;0.00;0.00;;;16.30;99.90;;;;;;5010475;28;20537;-81
2022/07/04 01:08:48;;;;;;;0.00;0.00;;;16.20;99.90;;;;;;5007793;28;20517;-80
2022/07/04 01:11:17;;;;;;;0.00;0.00;;;16.30;99.90;;;;;;5010897;28;21225;-79
2022/07/04 01:13:45;;;;;;;0.00;0.00;;;16.30;99.90;;;;;;5012709;28;20461;-80
2022/07/04 01:16:15;;;;;;;0.00;0.00;;;16.30;99.90;;;;;;5014732;28;20991;-80
2022/07/04 01:18:43;;;;;;;0.00;0.00;;;16.30;99.90;;;;;;5014072;28;21035;-79
2022/07/04 01:21:12;;;;;;;0.00;0.00;;;16.20;99.90;;;;;;5011998;28;20438;-80
2022/07/04 01:23:41;;;;;;;0.00;0.00;;;16.20;99.90;;;;;;5011672;28;20565;-80
2022/07/04 01:26:09;;;;;;;0.00;0.00;;;16.20;99.90;;;;;;5016824;28;20701;-80
2022/07/04 01:28:37;;;;;;;0.00;0.00;;;16.10;99.90;;;;;;5018807;28;20481;-81
2022/07/04 01:31:05;;;;;;;0.00;0.00;;;16.10;99.90;;;;;;5012328;28;20688;-81
2022/07/04 01:33:33;;;;;;;0.00;0.00;;;16.10;99.90;;;;;;5016585;28;20480;-77
2022/07/04 01:36:01;;;;;;;0.00;0.00;;;16.00;99.90;;;;;;5014687;28;20434;-78
2022/07/04 01:38:31;;;;;;;0.00;0.00;;;16.00;99.90;;;;;;5008141;28;20767;-77
2022/07/04 01:40:59;;;;;;;0.00;0.00;;;16.00;99.90;;;;;;5012506;28;20500;-77
2022/07/04 01:43:26;;;;;;;0.00;0.00;;;16.00;99.90;;;;;;5016165;28;20442;-77
2022/07/04 01:45:55;;;;;;;0.00;0.00;;;16.00;99.90;;;;;;5012572;28;20447;-78
2022/07/04 01:48:23;;;;;;;0.00;0.00;;;16.00;99.90;;;;;;5017790;28;20481;-78
2022/07/04 01:50:51;;;;;;;0.00;0.00;;;15.80;99.90;;;;;;5010156;28;20477;-80
2022/07/04 01:53:18;;;;;;;0.00;0.00;;;15.80;99.90;;;;;;5010954;28;20968;-81
2022/07/04 01:55:48;;;;;;;0.00;0.00;;;15.80;99.90;;;;;;5012782;28;20455;-80
2022/07/04 01:58:16;;;;;;;0.00;0.00;;;15.80;99.90;;;;;;5012726;28;20486;-80
2022/07/04 02:03:30;;;;;;;0.00;0.00;;;15.90;99.90;;;;;;5013703;28;20715;-79
2022/07/04 02:05:57;;;;;;;0.00;0.00;;;15.80;99.90;;;;;;5015037;28;20485;-79
2022/07/04 02:09:14;;;;;;;0.00;0.00;;;15.70;99.90;;;;;;5011709;28;20469;-79
2022/07/04 02:11:15;;;;;;;0.00;0.00;;;15.80;99.90;;;;;;5005548;28;20592;-79
2022/07/04 02:13:42;;;;;;;0.00;0.00;;;15.80;99.90;;;;;;5005189;28;20513;-77
2022/07/04 02:16:10;;;;;;;0.00;0.00;;;15.70;99.90;;;;;;5003965;28;20468;-76
2022/07/04 02:23:54;;;;;;;0.00;0.00;;;15.70;99.90;;;;;;4986241;28;20577;-80
2022/07/04 02:26:23;;;;;;;0.00;0.00;;;15.70;99.90;;;;;;4983404;28;20476;-80
2022/07/04 02:28:52;;;;;;;0.00;0.00;;;15.80;99.90;;;;;;4982540;28;20505;-80
2022/07/04 02:31:20;;;;;;;0.00;0.00;;;15.80;99.90;;;;;;4984869;28;20442;-78
2022/07/04 02:33:49;;;;;;;0.00;0.00;;;15.80;99.90;;;;;;4982232;28;20521;-78
2022/07/04 02:36:16;;;;;;;0.00;0.00;;;15.70;99.90;;;;;;4983221;28;20767;-79
2022/07/04 02:38:44;;;;;;;0.00;0.00;;;15.70;99.90;;;;;;4982975;28;20564;-79
2022/07/04 02:41:12;;;;;;;0.00;0.00;;;15.70;99.90;;;;;;4982799;28;20436;-79
2022/07/04 02:43:41;;;;;;;0.00;0.00;;;15.70;99.90;;;;;;4983286;28;20733;-79
2022/07/04 02:46:09;;;;;;;0.00;0.00;;;15.70;99.90;;;;;;4983625;28;20457;-79
2022/07/04 02:48:38;;;;;;;0.00;0.00;;;15.60;99.90;;;;;;4983290;28;20435;-79
2022/07/04 02:51:05;;;;;;;0.00;0.00;;;15.60;99.90;;;;;;4982187;28;20486;-79
2022/07/04 02:53:33;;;;;;;0.00;0.00;;;15.50;99.90;;;;;;4982887;28;20749;-79
2022/07/04 02:56:03;;;;;;;0.00;0.00;;;15.50;99.90;;;;;;4982679;28;20458;-79
2022/07/04 02:58:31;;;;;;;0.00;0.00;;;15.50;99.90;;;;;;4982045;28;20566;-79
2022/07/04 03:01:01;;;;;;;0.00;0.00;;;15.50;99.90;;;;;;4981820;28;20952;-79
2022/07/04 03:03:29;;;;;;;0.00;0.00;;;15.50;99.90;;;;;;4981811;28;20792;-78
2022/07/04 03:05:57;;;;;;;0.00;0.00;;;15.40;99.90;;;;;;4980645;28;20606;-77
2022/07/04 03:08:31;;;;;;;0.00;0.00;;;15.40;99.90;;;;;;4982377;28;20449;-79
2022/07/04 03:10:59;;;;;;;0.00;0.00;;;15.40;99.90;;;;;;4981416;28;20747;-78
2022/07/04 03:13:27;;;;;;;0.00;0.00;;;15.40;99.90;;;;;;4981371;28;20745;-79
2022/07/04 03:15:55;;;;;;;0.00;0.00;;;15.40;99.90;;;;;;4983005;28;20966;-79
2022/07/04 03:18:24;;;;;;;0.00;0.00;;;15.40;99.90;;;;;;4982545;28;20467;-77
2022/07/04 03:20:52;;;;;;;0.00;0.00;;;15.40;99.90;;;;;;4979727;28;20863;-76
2022/07/04 03:23:20;;;;;;;0.00;0.00;;;15.40;99.90;;;;;;4982000;28;20750;-78
2022/07/04 03:25:48;;;;;;;0.00;0.00;;;15.40;99.90;;;;;;4982015;28;20972;-78
2022/07/04 03:28:16;;;;;;;0.00;0.00;;;15.50;99.90;;;;;;4983157;28;20455;-78
2022/07/04 03:30:43;;;;;;;0.00;0.00;;;15.50;99.90;;;;;;4983946;28;20573;-77
2022/07/04 03:33:11;;;;;;;0.00;0.00;;;15.50;99.90;;;;;;4983028;28;20713;-79
2022/07/04 03:35:41;;;;;;;0.00;0.00;;;15.50;99.90;;;;;;4984730;28;20768;-80
2022/07/04 03:38:09;;;;;;;0.00;0.00;;;15.50;99.90;;;;;;4981492;28;20515;-79
2022/07/04 03:40:38;;;;;;;0.00;0.00;;;15.50;99.90;;;;;;4979793;28;21084;-78
2022/07/04 03:43:06;;;;;;;0.00;0.00;;;15.60;99.90;;;;;;4992966;28;20470;-79
2022/07/04 03:45:37;;;;;;;0.00;0.00;;;15.50;99.90;;;;;;4991641;28;21022;-79
2022/07/04 03:48:05;;;;;;;0.00;0.00;;;15.50;99.90;;;;;;4985366;28;20466;-79
2022/07/04 03:50:33;;;;;;;0.00;0.00;;;15.50;99.90;;;;;;4989222;28;21042;-79
2022/07/04 03:53:03;;;;;;;0.00;0.00;;;15.50;99.90;;;;;;4980917;28;20533;-78
2022/07/04 03:55:33;;;;;;;0.00;0.00;;;15.50;99.90;;;;;;4982043;28;20442;-79
2022/07/04 03:58:04;;;;;;;0.00;0.00;;;15.50;99.90;;;;;;4980508;28;20537;-78
2022/07/04 04:00:33;;;;;;;0.00;0.00;;;15.50;99.90;;;;;;4986844;28;20450;-78
2022/07/04 04:03:01;;;;;;;0.00;0.00;;;15.50;99.90;;;;;;4984049;28;20451;-79
2022/07/04 04:05:52;;;;;;;0.00;0.00;;;15.50;99.90;;;;;;4984426;28;20482;-80
2022/07/04 04:08:35;;;;;;;0.00;0.00;;;15.60;99.90;;;;;;4983866;28;20473;-78
2022/07/04 04:11:03;;;;;;;0.00;0.00;;;15.60;99.90;;;;;;4985017;28;20482;-79
2022/07/04 04:13:31;;;;;;;0.00;0.00;;;15.60;99.90;;;;;;4984040;28;20549;-80
2022/07/04 04:15:59;;;;;;;0.00;0.00;;;15.60;99.90;;;;;;4982972;28;20534;-80
2022/07/04 04:18:27;;;;;;;0.00;0.00;;;15.70;99.90;;;;;;4984849;28;20558;-79
2022/07/04 04:20:54;;;;;;;0.00;0.00;;;15.70;99.90;;;;;;4983736;28;20443;-80
2022/07/04 04:23:22;;;;;;;0.00;0.00;;;15.70;99.90;;;;;;4983941;28;20473;-79
2022/07/04 04:25:51;;;;;;;0.00;0.00;;;15.70;99.90;;;;;;4983458;28;20447;-79
2022/07/04 04:28:23;;;;;;;0.00;0.00;;;15.70;99.90;;;;;;4983534;28;20613;-79
2022/07/04 04:30:51;;;;;;;0.00;0.00;;;15.70;99.90;;;;;;4982703;28;20577;-78
2022/07/04 04:33:19;;;;;;;0.00;0.00;;;15.70;99.90;;;;;;4981216;28;21028;-78
2022/07/04 04:35:47;;;;;;;0.00;0.00;;;15.80;99.90;;;;;;4981703;28;20444;-79
2022/07/04 04:38:15;;;;;;;0.00;0.00;;;15.90;99.90;;;;;;4981532;28;20505;-79
2022/07/04 04:40:43;;;;;;;0.00;0.00;;;15.90;99.90;;;;;;4977198;28;20938;-77
2022/07/04 04:43:12;;;;;;;0.00;0.00;;;16.00;99.90;;;;;;4969177;28;20466;-74
2022/07/04 04:45:43;;;;;;;0.00;0.00;;;16.10;99.90;;;;;;4971214;28;20451;-76
2022/07/04 04:48:11;;;;;;;0.00;0.00;;;16.10;99.90;;;;;;4979443;28;20878;-71
2022/07/04 04:50:39;;;;;;;0.00;0.00;;;16.10;99.90;;;;;;4984853;28;20477;-75
2022/07/04 04:53:10;;;;;;;0.00;0.00;;;16.00;99.90;;;;;;4981084;28;20475;-74
2022/07/04 04:55:38;;;;;;;0.00;0.00;;;16.10;99.90;;;;;;4969688;28;20444;-75
2022/07/04 04:58:05;;;;;;;0.00;0.00;;;16.00;99.90;;;;;;4964517;28;20578;-74
2022/07/04 05:00:35;;;;;;;0.00;0.00;;;16.10;99.90;;;;;;4965067;28;20455;-74
2022/07/04 05:03:02;;;;;;;0.00;0.00;;;16.10;99.90;;;;;;4965359;28;20823;-74
2022/07/04 05:05:30;;;;;;;0.00;0.00;;;16.10;99.90;;;;;;4967162;28;20447;-74
2022/07/04 05:07:58;;;;;;;0.00;0.00;;;16.20;99.90;;;;;;4976342;28;20558;-74
2022/07/04 05:10:27;;;;;;;0.00;0.00;;;16.20;99.90;;;;;;4981271;28;20455;-73
2022/07/04 05:12:55;;;;;;;0.00;0.00;;;16.20;99.90;;;;;;4980689;28;21054;-74
2022/07/04 05:15:32;;;;;;;0.00;0.00;;;16.20;99.90;;;;;;4981294;28;20446;-73
2022/07/04 05:18:01;;;;;;;0.00;0.00;;;16.30;99.90;;;;;;4961953;28;20908;-74
2022/07/04 05:20:29;;;;;;;0.00;0.00;;;16.30;99.90;;;;;;4970806;28;20460;-78
2022/07/04 05:22:57;;;;;;;0.00;0.00;;;16.40;99.90;;;;;;4974078;28;20546;-77
2022/07/04 05:25:26;;;;;;;0.00;0.00;;;16.40;99.90;;;;;;4976447;28;20448;-77
2022/07/04 05:27:53;;;;;;;0.00;0.00;;;16.50;99.90;;;;;;4975243;28;20516;-74
2022/07/04 05:30:21;;;;;;;0.00;0.00;;;16.60;99.90;;;;;;4973832;28;20452;-75
2022/07/04 05:32:49;;;;;;;0.00;0.00;;;16.90;99.90;;;;;;4966136;28;20488;-73
2022/07/04 05:35:18;;;;;;;0.00;0.00;;;17.10;99.90;;;;;;4961539;28;20961;-74
2022/07/04 05:37:46;;;;;;;0.00;0.00;;;17.40;99.90;;;;;;4961074;28;20527;-74
2022/07/04 05:40:14;;;;;;;0.00;0.00;;;17.50;99.90;;;;;;4967767;28;20467;-74
2022/07/04 05:42:42;;;;;;;0.00;0.00;;;17.50;99.90;;;;;;4980456;28;20785;-77
2022/07/04 05:45:10;;;;;;;0.00;0.00;;;17.60;99.90;;;;;;4981036;28;20725;-73
2022/07/04 05:47:38;;;;;;;0.00;0.00;;;17.60;99.90;;;;;;4980359;28;21040;-72
2022/07/04 05:50:07;;;;;;;0.00;0.00;;;17.60;99.90;;;;;;4961544;28;20467;-73
2022/07/04 05:52:36;;;;;;;0.00;0.00;;;17.50;99.90;;;;;;4960844;28;20491;-72
2022/07/04 05:55:06;;;;;;;0.00;0.00;;;17.40;99.90;;;;;;4960336;28;20452;-73
2022/07/04 05:57:34;;;;;;;0.00;0.00;;;17.40;99.90;;;;;;4960470;28;20678;-72
2022/07/04 06:00:02;;;;;;;0.00;0.00;;;17.40;99.90;;;;;;4961320;28;20495;-73
2022/07/04 06:02:30;;;;;;;0.00;0.00;;;17.40;99.90;;;;;;4960626;28;20940;-73
2022/07/04 06:08:15;;;;;;;0.00;0.00;;;17.50;99.90;;;;;;4945531;28;20563;-73
2022/07/04 06:10:43;;;;;;;0.00;0.00;;;17.50;99.90;;;;;;4960236;28;20452;-73
2022/07/04 06:13:11;;;;;;;0.00;0.00;;;17.60;99.90;;;;;;4959989;28;20882;-74
2022/07/04 06:15:39;;;;;;;0.00;0.00;;;17.60;99.90;;;;;;4970840;28;20443;-74
2022/07/04 06:18:07;;;;;;;0.00;0.00;;;17.80;99.90;;;;;;4960329;28;20511;-73
2022/07/04 06:20:35;;;;;;;0.00;0.00;;;17.80;99.90;;;;;;4970358;28;21039;-73
2022/07/04 06:23:03;;;;;;;0.00;0.00;;;17.80;99.90;;;;;;4978525;28;20514;-73
2022/07/04 06:25:33;;;;;;;0.00;0.00;;;17.70;99.90;;;;;;4980082;28;20729;-72
2022/07/04 06:28:01;;;;;;;0.00;0.00;;;17.80;99.90;;;;;;4981345;28;20535;-72
2022/07/04 06:30:29;;;;;;;0.00;0.00;;;17.90;99.90;;;;;;4980653;28;20473;-74
2022/07/04 06:32:59;;;;;;;0.00;0.00;;;18.00;99.90;;;;;;4981763;28;20515;-73
2022/07/04 06:35:47;;;;;;;0.00;0.00;;;18.10;99.90;;;;;;4982008;28;20981;-73
2022/07/04 06:38:17;;;;;;;0.00;0.00;;;18.20;99.90;;;;;;4961017;28;20501;-73
2022/07/04 06:40:46;;;;;;;0.00;0.00;;;18.30;99.90;;;;;;4964282;28;20491;-71
2022/07/04 06:43:14;;;;;;;0.00;0.00;;;18.40;99.90;;;;;;4962132;28;20442;-71
2022/07/04 06:45:42;;;;;;;0.00;0.00;;;18.60;99.90;;;;;;4961176;28;20447;-72
2022/07/04 06:48:10;;;;;;;0.00;0.00;;;18.80;99.90;;;;;;4961181;28;20469;-73
2022/07/04 06:50:44;;;;;;;0.00;0.00;;;19.00;99.90;;;;;;4960761;28;20464;-73
2022/07/04 06:53:12;;;;;;;0.00;0.00;;;19.20;99.90;;;;;;4961399;28;20487;-72
2022/07/04 06:55:42;;;;;;;0.00;0.00;;;19.40;99.90;;;;;;4976652;28;20466;-74
2022/07/04 06:58:13;;;;;;;0.00;0.00;;;19.50;99.90;;;;;;4979928;28;20517;-72
2022/07/04 07:00:42;;;;;;;0.00;0.00;;;19.50;99.90;;;;;;4979704;28;20446;-71
2022/07/04 07:03:11;;;;;;;0.00;0.00;;;19.50;99.90;;;;;;4979739;28;20452;-73
2022/07/04 07:05:39;;;;;;;0.00;0.00;;;19.40;99.90;;;;;;4977889;28;20479;-74
2022/07/04 07:08:26;;;;;;;0.00;0.00;;;19.50;99.90;;;;;;4976666;28;20465;-72
2022/07/04 07:10:54;;;;;;;0.00;0.00;;;19.60;99.90;;;;;;4959777;28;20519;-73
2022/07/04 07:13:23;;;;;;;0.00;0.00;;;19.70;99.90;;;;;;4959979;28;20476;-71
2022/07/04 07:15:51;;;;;;;0.00;0.00;;;19.80;99.90;;;;;;4959763;28;20471;-71
2022/07/04 07:18:19;;;;;;;0.00;0.00;;;19.90;99.90;;;;;;4959467;28;20459;-71
2022/07/04 07:20:47;;;;;;;0.00;0.00;;;20.00;99.90;;;;;;4959971;28;20570;-73
2022/07/04 07:23:15;;;;;;;0.00;0.00;;;19.90;99.90;;;;;;4984524;28;20447;-79
2022/07/04 07:25:43;;;;;;;0.00;0.00;;;19.80;99.90;;;;;;4993288;28;20545;-79
2022/07/04 07:28:11;;;;;;;0.00;0.00;;;19.70;99.90;;;;;;4994409;28;20554;-77
2022/07/04 07:30:40;;;;;;;0.00;0.00;;;19.80;99.90;;;;;;4983054;28;20449;-80
2022/07/04 07:33:08;;;;;;;0.00;0.00;;;19.90;99.90;;;;;;4982166;28;20483;-80
2022/07/04 07:35:36;;;;;;;0.00;0.00;;;19.90;99.90;;;;;;4982263;28;20450;-81
2022/07/04 07:38:06;;;;;;;0.00;0.00;;;19.90;99.90;;;;;;4982640;28;20528;-79
2022/07/04 07:40:34;;;;;;;0.00;0.00;;;20.00;99.90;;;;;;4982672;28;20829;-81
2022/07/04 07:43:02;;;;;;;0.00;0.00;;;20.10;99.90;;;;;;4983106;28;20529;-79
2022/07/04 07:45:29;;;;;;;0.00;0.00;;;20.10;99.90;;;;;;4983210;28;20446;-80
2022/07/04 07:47:59;;;;;;;0.00;0.00;;;20.10;99.90;;;;;;4982585;28;20530;-76
2022/07/04 07:50:27;;;;;;;0.00;0.00;;;20.10;99.90;;;;;;4981602;28;20911;-78
2022/07/04 07:52:55;;;;;;;0.00;0.00;;;20.20;99.90;;;;;;4971054;28;20472;-80
2022/07/04 07:55:23;;;;;;;0.00;0.00;;;20.30;99.90;;;;;;4961974;28;20750;-77
2022/07/04 07:57:50;;;;;;;0.00;0.00;;;20.40;99.90;;;;;;4971043;28;20690;-80
2022/07/04 08:00:18;;;;;;;0.00;0.00;;;20.40;99.90;;;;;;4981293;28;20503;-78
2022/07/04 08:05:53;;;;;;;0.00;0.00;;;20.20;99.90;;;;;;4966282;28;20439;-77
2022/07/04 08:08:22;;;;;;;0.00;0.00;;;19.90;99.90;;;;;;4968535;28;20482;-79
2022/07/04 08:10:50;;;;;;;0.00;0.00;;;19.80;99.90;;;;;;4971531;28;20486;-79
2022/07/04 08:13:18;;;;;;;0.00;0.00;;;19.70;99.90;;;;;;4964715;28;20564;-79
2022/07/04 08:15:47;;;;;;;0.00;0.00;;;19.80;99.90;;;;;;4980294;28;20498;-79
2022/07/04 08:18:17;;;;;;;0.00;0.00;;;19.80;99.90;;;;;;4994009;28;20913;-77
2022/07/04 08:20:45;;;;;;;0.00;0.00;;;19.90;99.90;;;;;;4993293;28;20511;-79
2022/07/04 08:23:29;;;;;;;0.00;0.00;;;20.00;99.90;;;;;;4984616;28;20810;-80
2022/07/04 08:25:57;;;;;;;0.00;0.00;;;20.10;99.90;;;;;;4976788;28;20504;-80
2022/07/04 08:28:25;;;;;;;0.00;0.00;;;20.10;99.90;;;;;;4984326;28;20790;-76
2022/07/04 08:30:53;;;;;;;0.00;0.00;;;20.10;99.90;;;;;;4983753;28;20958;-78
2022/07/04 08:33:22;;;;;;;0.00;0.00;;;20.20;99.90;;;;;;4985205;28;20582;-80
2022/07/04 08:35:50;;;;;;;0.00;0.00;;;20.30;99.90;;;;;;4984955;28;20513;-81
2022/07/04 08:38:19;;;;;;;0.00;0.00;;;20.40;99.90;;;;;;4987329;28;20853;-81
2022/07/04 08:40:48;;;;;;;0.00;0.00;;;20.60;99.90;;;;;;4984904;28;20522;-75
2022/07/04 08:43:16;;;;;;;0.00;0.00;;;20.70;99.90;;;;;;4983689;28;20463;-77
2022/07/04 08:45:48;;;;;;;0.00;0.00;;;20.80;99.90;;;;;;4982725;28;20443;-75
2022/07/04 08:48:41;;;;;;;0.00;0.00;;;20.70;99.90;;;;;;4963648;28;20456;-77
2022/07/04 08:51:15;;;;;;;0.00;0.00;;;20.60;99.90;;;;;;4964971;28;20846;-76
2022/07/04 08:53:50;;;;;;;0.00;0.00;;;20.60;99.90;;;;;;4983696;28;20528;-78
2022/07/04 08:59:07;;;;;;;0.00;0.00;;;20.60;99.90;;;;;;4981343;28;20446;-77
2022/07/04 09:01:35;;;;;;;0.00;0.00;;;20.70;99.90;;;;;;4993296;28;20431;-77
2022/07/04 09:04:05;;;;;;;0.00;0.00;;;20.80;99.90;;;;;;4984926;28;20517;-76
2022/07/04 09:06:33;;;;;;;0.00;0.00;;;21.00;99.90;;;;;;4992956;28;20793;-78
2022/07/04 09:09:01;;;;;;;0.00;0.00;;;21.30;99.90;;;;;;4989805;28;20506;-78
2022/07/04 09:11:29;;;;;;;0.00;0.00;;;21.50;99.90;;;;;;4986199;28;20427;-77
2022/07/04 09:13:58;;;;;;;0.00;0.00;;;21.60;99.90;;;;;;4982098;28;20488;-76
2022/07/04 09:16:26;;;;;;;0.00;0.00;;;21.60;99.90;;;;;;4985228;28;20539;-77
2022/07/04 09:18:55;;;;;;;0.00;0.00;;;21.60;99.90;;;;;;4984866;28;20446;-77
2022/07/04 09:21:44;;;;;;;0.00;0.00;;;21.50;99.90;;;;;;4967819;28;20763;-78
2022/07/04 09:24:12;;;;;;;0.00;0.00;;;21.50;99.90;;;;;;4982900;28;20445;-77
2022/07/04 09:26:41;;;;;;;0.00;0.00;;;21.70;99.90;;;;;;4984309;28;20828;-77
2022/07/04 09:29:10;;;;;;;0.00;0.00;;;21.90;99.90;;;;;;4984446;28;21010;-75
2022/07/04 09:31:39;;;;;;;0.00;0.00;;;22.10;99.90;;;;;;4971295;28;20464;-78
2022/07/04 09:34:07;;;;;;;0.00;0.00;;;22.20;99.90;;;;;;4977862;28;20651;-77
2022/07/04 09:36:44;;;;;;;0.00;0.00;;;22.40;99.90;;;;;;4985489;28;20519;-78
2022/07/04 09:39:14;;;;;;;0.00;0.00;;;22.60;99.90;;;;;;4982994;28;20644;-78
2022/07/04 09:41:54;;;;;;;0.00;0.00;;;22.60;99.90;;;;;;4981715;28;21032;-78
2022/07/04 09:44:22;;;;;;;0.00;0.00;;;22.40;99.90;;;;;;4984408;28;20449;-75
2022/07/04 09:46:50;;;;;;;0.00;0.00;;;22.40;99.90;;;;;;4983449;28;20465;-78
2022/07/04 09:49:18;;;;;;;0.00;0.00;;;22.50;99.90;;;;;;4983732;28;20540;-78
2022/07/04 09:51:51;;;;;;;0.00;0.00;;;22.50;99.90;;;;;;4982757;28;20808;-78
2022/07/04 09:54:24;;;;;;;0.00;0.00;;;22.70;99.90;;;;;;4983768;28;20972;-77
2022/07/04 09:56:54;;;;;;;0.00;0.00;;;22.90;99.90;;;;;;4983315;28;20559;-78
2022/07/04 09:59:22;;;;;;;0.00;0.00;;;23.10;99.90;;;;;;4982536;28;20445;-78
2022/07/04 10:01:50;;;;;;;0.00;0.00;;;23.30;99.90;;;;;;4981690;28;20461;-77
2022/07/04 10:04:21;;;;;;;0.00;0.00;;;23.40;99.90;;;;;;4982723;28;20457;-77
2022/07/04 10:06:50;;;;;;;0.00;0.00;;;23.40;99.90;;;;;;4982234;28;20466;-78
2022/07/04 10:09:19;;;;;;;0.00;0.00;;;23.50;99.90;;;;;;4982281;28;20604;-78
2022/07/04 10:11:48;;;;;;;0.00;0.00;;;23.50;99.90;;;;;;4977055;28;20462;-77
2022/07/04 10:14:17;;;;;;;0.00;0.00;;;23.40;99.90;;;;;;4963326;28;20510;-76
2022/07/04 10:16:45;;;;;;;0.00;0.00;;;23.40;99.90;;;;;;4977076;28;20465;-76
2022/07/04 10:19:13;;;;;;;0.00;0.00;;;23.30;99.90;;;;;;4973270;28;20732;-76
2022/07/04 10:21:41;;;;;;;0.00;0.00;;;23.30;99.90;;;;;;4962264;28;20800;-77
2022/07/04 10:24:10;;;;;;;0.00;0.00;;;23.30;99.90;;;;;;4981309;28;20657;-78
2022/07/04 10:26:39;;;;;;;0.00;0.00;;;23.30;99.90;;;;;;4981805;28;20686;-78
2022/07/04 10:29:07;;;;;;;0.00;0.00;;;23.20;99.90;;;;;;4982166;28;20449;-82
2022/07/04 10:31:36;;;;;;;0.00;0.00;;;23.00;99.90;;;;;;4982225;28;20575;-82
2022/07/04 10:34:05;;;;;;;0.00;0.00;;;23.10;99.90;;;;;;4989164;28;20486;-82
2022/07/04 10:36:34;;;;;;;0.00;0.00;;;23.10;99.90;;;;;;4991221;28;20543;-82
2022/07/04 10:39:04;;;;;;;0.00;0.00;;;23.20;99.90;;;;;;5000843;28;20446;-85
2022/07/04 10:41:33;;;;;;;0.00;0.00;;;23.30;99.90;;;;;;4983087;28;20455;-85
2022/07/04 10:44:05;;;;;;;0.00;0.00;;;23.50;99.90;;;;;;4968527;28;20456;-78
2022/07/04 10:46:38;;;;;;;0.00;0.00;;;23.70;99.90;;;;;;4963345;28;20908;-79
2022/07/04 10:49:08;;;;;;;0.00;0.00;;;23.80;99.90;;;;;;4961511;28;20617;-77
2022/07/04 10:51:42;;;;;;;0.00;0.00;;;23.80;99.90;;;;;;4961637;28;20456;-80
2022/07/04 10:54:13;;;;;;;0.00;0.00;;;23.60;99.90;;;;;;4961047;28;21027;-80
2022/07/04 10:56:51;;;;;;;0.00;0.00;;;23.70;99.90;;;;;;4971090;28;20491;-78
2022/07/04 10:59:22;;;;;;;0.00;0.00;;;23.80;99.90;;;;;;4974807;28;20451;-78
2022/07/04 11:01:53;;;;;;;0.00;0.00;;;23.90;99.90;;;;;;4962126;28;20599;-78
2022/07/04 11:05:02;;;;;;;0.00;0.00;;;24.00;99.90;;;;;;4977689;28;20464;-77
2022/07/04 11:07:59;;;;;;;0.00;0.00;;;23.90;99.90;;;;;;4981733;28;20455;-78
2022/07/04 11:10:31;;;;;;;0.00;0.00;;;23.70;99.90;;;;;;4971638;28;20463;-79
2022/07/04 11:13:17;;;;;;;0.00;0.00;;;23.60;99.90;;;;;;4967037;28;20498;-79
2022/07/04 11:16:05;;;;;;;0.00;0.00;;;23.40;99.90;;;;;;4976985;28;20485;-79
2022/07/04 11:18:41;;;;;;;0.00;0.00;;;23.40;99.90;;;;;;4978616;28;20460;-79
2022/07/04 11:21:21;;;;;;;0.00;0.00;;;23.40;99.90;;;;;;4962308;28;20493;-79
2022/07/04 11:23:53;;;;;;;0.00;0.00;;;23.40;99.90;;;;;;4979513;28;21414;-79
2022/07/04 11:26:22;;;;;;;0.00;0.00;;;23.30;99.90;;;;;;4985640;28;20465;-79
2022/07/04 11:28:52;;;;;;;0.00;0.00;;;23.30;99.90;;;;;;4987171;28;20473;-80
2022/07/04 11:31:20;;;;;;;0.00;0.00;;;23.20;99.90;;;;;;4973332;28;21016;-80
2022/07/04 11:33:48;;;;;;;0.00;0.00;;;23.10;99.90;;;;;;4974450;28;20512;-80
2022/07/04 11:36:20;;;;;;;0.00;0.00;;;23.00;99.90;;;;;;4972332;28;20473;-80
2022/07/04 11:38:54;;;;;;;0.00;0.00;;;22.90;99.90;;;;;;4980225;28;20705;-80
2022/07/04 11:47:10;;;;;;;0.00;0.00;;;22.80;99.90;;;;;;4978851;28;20722;-81
2022/07/04 11:49:44;;;;;;;0.00;0.00;;;22.80;99.90;;;;;;4979276;28;20465;-81
2022/07/04 11:52:13;;;;;;;0.00;0.00;;;22.90;99.90;;;;;;4968639;28;20491;-80
2022/07/04 11:54:42;;;;;;;0.00;0.00;;;23.00;99.90;;;;;;4982391;28;20513;-79
2022/07/04 11:57:23;;;;;;;0.00;0.00;;;23.20;99.90;;;;;;4978522;28;20863;-79
2022/07/04 11:59:58;;;;;;;0.00;0.00;;;23.50;99.90;;;;;;4973813;28;20471;-79
2022/07/04 12:02:28;;;;;;;0.00;0.00;;;23.70;99.90;;;;;;4980583;28;20474;-81
2022/07/04 12:04:57;;;;;;;0.00;0.00;;;23.60;99.90;;;;;;4988183;28;21082;-81
2022/07/04 12:07:26;;;;;;;0.00;0.00;;;23.70;99.90;;;;;;4971476;28;20558;-80
2022/07/04 12:09:56;;;;;;;0.00;0.00;;;23.60;99.90;;;;;;4989477;28;20524;-79
2022/07/04 12:12:24;;;;;;;0.00;0.00;;;23.70;99.90;;;;;;4982546;28;20879;-80
2022/07/04 12:15:01;;;;;;;0.00;0.00;;;23.80;99.90;;;;;;4971757;28;20492;-80
2022/07/04 12:17:35;;;;;;;0.00;0.00;;;23.80;99.90;;;;;;4979513;28;20560;-79
2022/07/04 12:20:12;;;;;;;0.00;0.00;;;23.60;99.90;;;;;;4978816;28;20704;-81
2022/07/04 12:22:42;;;;;;;0.00;0.00;;;23.50;99.90;;;;;;4990506;28;20461;-80
2022/07/04 12:25:22;;;;;;;0.00;0.00;;;23.30;99.90;;;;;;4984778;28;20833;-79
2022/07/04 12:27:59;;;;;;;0.00;0.00;;;23.20;99.90;;;;;;4988256;28;20495;-77
2022/07/04 12:30:30;;;;;;;0.00;0.00;;;23.20;99.90;;;;;;4988649;28;20941;-77
2022/07/04 12:33:01;;;;;;;0.00;0.00;;;23.20;99.90;;;;;;4993080;28;20452;-79
2022/07/04 12:35:37;;;;;;;0.00;0.00;;;23.40;99.90;;;;;;4986792;28;20482;-81
2022/07/04 12:38:06;;;;;;;0.00;0.00;;;23.50;99.90;;;;;;4985100;28;20834;-81
2022/07/04 12:40:36;;;;;;;0.00;0.00;;;23.60;99.90;;;;;;4986989;28;20985;-81
2022/07/04 12:43:10;;;;;;;0.00;0.00;;;23.80;99.90;;;;;;4988954;28;20819;-81
2022/07/04 12:45:48;;;;;;;0.00;0.00;;;23.90;99.90;;;;;;4989344;28;20447;-80
2022/07/04 12:48:18;;;;;;;0.00;0.00;;;24.00;99.90;;;;;;4980478;28;21078;-81
2022/07/04 12:50:47;;;;;;;0.00;0.00;;;24.10;99.90;;;;;;4977706;28;20448;-79
2022/07/04 12:53:15;;;;;;;0.00;0.00;;;24.10;99.90;;;;;;4981573;28;20462;-78
2022/07/04 12:55:44;;;;;;;0.00;0.00;;;24.00;99.90;;;;;;4964598;28;20594;-77
2022/07/04 12:58:12;;;;;;;0.00;0.00;;;23.90;99.90;;;;;;4980880;28;20476;-78
2022/07/04 13:00:41;;;;;;;0.00;0.00;;;23.90;99.90;;;;;;4981117;28;20465;-77
2022/07/04 13:03:12;;;;;;;0.00;0.00;;;23.90;99.90;;;;;;4985654;28;20548;-77
2022/07/04 13:05:40;;;;;;;0.00;0.00;;;23.90;99.90;;;;;;4985318;28;20605;-79
2022/07/04 13:08:09;;;;;;;0.00;0.00;;;23.90;99.90;;;;;;4976372;28;20525;-78
2022/07/04 13:10:37;;;;;;;0.00;0.00;;;24.00;99.90;;;;;;4973042;28;20468;-77
2022/07/04 13:13:05;;;;;;;0.00;0.00;;;24.10;99.90;;;;;;4976693;28;20460;-79
2022/07/04 13:15:33;;;;;;;0.00;0.00;;;24.10;99.90;;;;;;4966659;28;20478;-78
2022/07/04 13:18:01;;;;;;;0.00;0.00;;;24.20;99.90;;;;;;4978201;28;20589;-78
2022/07/04 13:20:31;;;;;;;0.00;0.00;;;24.40;99.90;;;;;;4977173;28;20465;-79
2022/07/04 13:22:59;;;;;;;0.00;0.00;;;24.50;99.90;;;;;;4974853;28;20869;-79
2022/07/04 13:25:27;;;;;;;0.00;0.00;;;24.50;99.90;;;;;;4980176;28;20931;-78